createdAt,value
2023-02-27T00:00:48.884Z,57.67
2023-02-27T00:03:16.835Z,56.99
2023-02-27T00:05:44.980Z,57.27
2023-02-27T00:08:12.945Z,56.90
2023-02-27T00:10:40.927Z,57.28
2023-02-27T00:13:10.125Z,57.50
2023-02-27T00:15:41.001Z,58.10
2023-02-27T00:18:10.505Z,57.67
2023-02-27T00:20:38.829Z,57.45
2023-02-27T00:23:07.748Z,57.28
2023-02-27T00:25:36.494Z,57.12
2023-02-27T00:28:05.032Z,58.55
2023-02-27T00:30:33.069Z,58.43
2023-02-27T00:33:01.377Z,58.49
2023-02-27T00:35:30.774Z,59.12
2023-02-27T00:37:58.742Z,58.85
2023-02-27T00:40:26.730Z,58.42
2023-02-27T00:42:54.967Z,57.69
2023-02-27T00:45:22.947Z,57.57
2023-02-27T00:47:51.007Z,58.47
2023-02-27T00:50:19.291Z,58.12
2023-02-27T00:52:48.650Z,58.11
2023-02-27T00:55:16.730Z,58.36
2023-02-27T00:57:44.735Z,58.63
2023-02-27T01:00:13.861Z,58.33
2023-02-27T01:02:41.907Z,58.10
2023-02-27T01:05:10.921Z,58.07
2023-02-27T01:07:38.920Z,57.48
2023-02-27T01:10:11.311Z,58.33
2023-02-27T01:12:39.508Z,58.03
2023-02-27T01:15:09.689Z,58.84
2023-02-27T01:17:37.994Z,58.46
2023-02-27T01:20:07.644Z,58.58
2023-02-27T01:22:36.106Z,57.91
2023-02-27T01:25:04.522Z,58.63
2023-02-27T01:27:34.107Z,58.59
2023-02-27T01:30:02.081Z,58.40
2023-02-27T01:32:30.142Z,58.61
2023-02-27T01:34:58.181Z,57.77
2023-02-27T01:37:27.354Z,58.85
2023-02-27T01:39:55.329Z,59.01
2023-02-27T01:42:26.025Z,58.51
2023-02-27T01:45:41.915Z,58.62
2023-02-27T01:48:17.011Z,58.00
2023-02-27T01:50:50.915Z,58.28
2023-02-27T01:53:20.885Z,58.50
2023-02-27T01:55:50.750Z,59.17
2023-02-27T01:58:19.181Z,58.28
2023-02-27T02:00:48.182Z,58.33
2023-02-27T02:03:24.287Z,59.02
2023-02-27T02:05:56.664Z,58.88
2023-02-27T02:08:28.277Z,58.92
2023-02-27T02:10:58.105Z,58.98
2023-02-27T02:13:26.515Z,58.68
2023-02-27T02:16:06.111Z,59.07
2023-02-27T02:18:48.559Z,59.35
2023-02-27T02:21:45.603Z,60.33
2023-02-27T02:24:48.501Z,60.56
2023-02-27T02:27:35.990Z,60.52
2023-02-27T02:30:47.267Z,60.57
2023-02-27T02:34:08.944Z,61.14
2023-02-27T02:37:14.403Z,60.96
2023-02-27T02:40:06.406Z,60.30
2023-02-27T02:42:40.023Z,59.74
2023-02-27T02:45:18.415Z,60.37
2023-02-27T02:48:00.998Z,60.53
2023-02-27T02:50:36.207Z,59.38
2023-02-27T02:53:11.984Z,60.69
2023-02-27T02:55:47.035Z,60.53
2023-02-27T02:58:23.023Z,60.48
2023-02-27T03:00:57.690Z,60.03
2023-02-27T03:03:29.463Z,60.95
2023-02-27T03:06:02.440Z,61.81
2023-02-27T03:08:35.802Z,61.59
2023-02-27T03:11:06.823Z,62.57
2023-02-27T03:13:41.273Z,62.70
2023-02-27T03:16:15.826Z,62.49
2023-02-27T03:18:50.577Z,61.52
2023-02-27T03:21:23.831Z,61.51
2023-02-27T03:23:54.090Z,62.11
2023-02-27T03:26:30.646Z,61.92
2023-02-27T03:29:02.668Z,62.17
2023-02-27T03:31:38.446Z,61.88
2023-02-27T03:34:14.354Z,61.47
2023-02-27T03:36:49.399Z,61.13
2023-02-27T03:39:28.674Z,61.63
2023-02-27T03:42:07.329Z,62.07
2023-02-27T03:45:01.636Z,61.63
2023-02-27T03:47:30.258Z,62.33
2023-02-27T03:49:58.799Z,61.84
2023-02-27T03:52:28.409Z,62.28
2023-02-27T03:55:01.452Z,62.68
2023-02-27T03:57:32.889Z,62.00
2023-02-27T04:00:01.067Z,62.22
2023-02-27T04:02:29.702Z,62.43
2023-02-27T04:04:57.851Z,63.12
2023-02-27T04:07:53.475Z,62.63
2023-02-27T04:10:32.638Z,62.32
2023-02-27T04:13:36.090Z,61.93
2023-02-27T04:16:40.335Z,62.24
2023-02-27T04:19:30.721Z,61.30
2023-02-27T04:22:10.952Z,61.80
2023-02-27T04:24:48.518Z,61.64
2023-02-27T04:27:25.294Z,61.84
2023-02-27T04:29:59.880Z,62.05
2023-02-27T04:32:36.864Z,61.68
2023-02-27T04:35:09.796Z,62.40
2023-02-27T04:37:45.541Z,62.31
2023-02-27T04:40:19.073Z,61.76
2023-02-27T04:42:52.176Z,62.15
2023-02-27T04:45:24.777Z,62.57
2023-02-27T04:47:58.030Z,62.13
2023-02-27T04:50:31.078Z,62.69
2023-02-27T04:53:04.673Z,63.25
2023-02-27T04:55:37.119Z,62.92
2023-02-27T04:58:11.120Z,62.41
2023-02-27T05:00:42.825Z,62.68
2023-02-27T05:03:14.927Z,62.88
2023-02-27T05:05:45.527Z,63.30
2023-02-27T05:08:23.229Z,63.34
2023-02-27T05:10:57.681Z,62.59
2023-02-27T05:13:29.265Z,63.05
2023-02-27T05:16:05.241Z,62.98
2023-02-27T05:18:33.574Z,63.18
2023-02-27T05:21:10.075Z,63.51
2023-02-27T05:24:00.277Z,62.98
2023-02-27T05:26:37.679Z,63.10
2023-02-27T05:29:14.707Z,62.61
2023-02-27T05:31:49.073Z,62.60
2023-02-27T05:34:24.689Z,62.99
2023-02-27T05:36:58.944Z,62.81
2023-02-27T05:39:31.444Z,62.69
2023-02-27T05:42:02.835Z,63.14
2023-02-27T05:44:34.152Z,62.82
2023-02-27T05:47:06.961Z,62.93
2023-02-27T05:49:39.316Z,62.67
2023-02-27T05:52:12.055Z,63.23
2023-02-27T05:54:45.696Z,63.33
2023-02-27T05:57:16.942Z,63.04
2023-02-27T05:59:51.203Z,62.56
2023-02-27T06:02:20.719Z,63.09
2023-02-27T06:04:49.155Z,62.81
2023-02-27T06:07:17.398Z,63.49
2023-02-27T06:09:46.421Z,64.02
2023-02-27T06:12:14.429Z,63.56
2023-02-27T06:14:42.392Z,63.81
2023-02-27T06:17:10.336Z,63.66
2023-02-27T06:19:39.719Z,63.77
2023-02-27T06:22:07.691Z,63.69
2023-02-27T06:24:35.656Z,63.46
2023-02-27T06:27:03.778Z,63.61
2023-02-27T06:29:31.766Z,63.62
2023-02-27T06:31:59.851Z,63.14
2023-02-27T06:34:27.980Z,63.47
2023-02-27T06:36:57.325Z,62.87
2023-02-27T06:39:25.302Z,63.14
2023-02-27T06:41:53.304Z,63.30
2023-02-27T06:44:21.770Z,63.03
2023-02-27T06:46:49.770Z,63.25
2023-02-27T06:49:17.919Z,62.65
2023-02-27T06:51:46.065Z,62.16
2023-02-27T06:54:15.649Z,61.82
2023-02-27T06:56:43.608Z,61.73
2023-02-27T06:59:11.647Z,62.39
2023-02-27T07:01:39.680Z,62.87
2023-02-27T07:04:07.827Z,62.42
2023-02-27T07:07:35.932Z,62.31
2023-02-27T07:09:25.147Z,61.94
2023-02-27T07:11:53.512Z,62.59
2023-02-27T07:14:21.861Z,62.65
2023-02-27T07:16:51.129Z,62.88
2023-02-27T07:19:19.267Z,62.34
2023-02-27T07:21:47.292Z,63.04
2023-02-27T07:24:15.298Z,63.38
2023-02-27T07:26:44.651Z,64.19
2023-02-27T07:29:13.028Z,63.38
2023-02-27T07:31:40.971Z,63.70
2023-02-27T07:34:09.668Z,63.25
2023-02-27T07:36:37.645Z,63.54
2023-02-27T07:39:06.283Z,62.92
2023-02-27T07:41:34.264Z,62.79
2023-02-27T07:44:03.813Z,62.81
2023-02-27T07:46:32.057Z,62.01
2023-02-27T07:49:00.178Z,61.48
2023-02-27T07:51:28.172Z,61.65
2023-02-27T07:53:57.729Z,61.99
2023-02-27T07:56:25.911Z,62.20
2023-02-27T07:58:54.022Z,62.38
2023-02-27T08:01:23.476Z,62.53
2023-02-27T08:03:51.416Z,62.67
2023-02-27T08:06:19.413Z,62.60
2023-02-27T08:08:47.366Z,63.05
2023-02-27T08:11:15.568Z,62.40
2023-02-27T08:14:00.108Z,62.17
2023-02-27T08:16:31.408Z,62.21
2023-02-27T08:19:00.135Z,62.20
2023-02-27T08:21:29.016Z,61.84
2023-02-27T08:23:57.252Z,61.99
2023-02-27T08:26:25.575Z,61.43
2023-02-27T08:28:54.083Z,62.02
2023-02-27T08:31:22.180Z,62.06
2023-02-27T08:34:01.164Z,61.83
2023-02-27T08:36:37.161Z,61.46
2023-02-27T08:39:05.276Z,62.12
2023-02-27T08:41:33.597Z,61.93
2023-02-27T08:44:01.822Z,61.21
2023-02-27T08:46:30.110Z,61.20
2023-02-27T08:48:59.700Z,60.32
2023-02-27T08:51:28.104Z,60.39
2023-02-27T08:53:59.055Z,60.14
2023-02-27T08:56:27.998Z,60.44
2023-02-27T08:58:56.540Z,60.55
2023-02-27T09:01:27.306Z,61.32
2023-02-27T09:03:55.560Z,61.37
2023-02-27T09:06:26.352Z,60.86
2023-02-27T09:08:54.711Z,60.79
2023-02-27T09:11:22.914Z,61.04
2023-02-27T09:13:51.496Z,60.12
2023-02-27T09:16:20.204Z,60.00
2023-02-27T09:18:48.861Z,59.51
2023-02-27T09:21:17.175Z,59.05
2023-02-27T09:23:46.565Z,58.94
2023-02-27T09:26:14.567Z,58.66
2023-02-27T09:28:42.625Z,58.51
2023-02-27T09:31:11.358Z,58.73
2023-02-27T09:33:39.993Z,58.43
2023-02-27T09:36:09.066Z,59.33
2023-02-27T09:38:38.845Z,58.86
2023-02-27T09:41:22.146Z,58.64
2023-02-27T09:43:52.378Z,58.24
2023-02-27T09:46:22.603Z,59.21
2023-02-27T09:48:53.232Z,58.79
2023-02-27T09:51:22.887Z,58.08
2023-02-27T09:53:53.954Z,57.83
2023-02-27T09:56:26.127Z,57.71
2023-02-27T09:59:02.418Z,57.74
2023-02-27T10:01:34.238Z,58.03
2023-02-27T10:04:31.587Z,58.20
2023-02-27T10:07:08.817Z,58.05
2023-02-27T10:09:45.376Z,58.51
2023-02-27T10:12:26.766Z,57.71
2023-02-27T10:14:58.953Z,57.38
2023-02-27T10:17:31.889Z,57.00
2023-02-27T10:20:03.708Z,58.70
2023-02-27T10:22:36.524Z,58.77
2023-02-27T10:25:21.302Z,58.44
2023-02-27T10:27:58.044Z,57.50
2023-02-27T10:30:32.370Z,58.19
2023-02-27T10:33:10.269Z,57.29
2023-02-27T10:35:42.269Z,57.66
2023-02-27T10:38:15.344Z,57.17
2023-02-27T10:40:45.204Z,57.77
2023-02-27T10:43:18.360Z,57.47
2023-02-27T10:45:46.390Z,57.22
2023-02-27T10:48:15.633Z,57.47
2023-02-27T10:50:45.692Z,57.43
2023-02-27T10:53:22.905Z,56.65
2023-02-27T10:56:01.600Z,57.18
2023-02-27T10:58:34.920Z,57.71
2023-02-27T11:01:05.603Z,56.86
2023-02-27T11:03:37.309Z,56.30
2023-02-27T11:06:10.247Z,55.57
2023-02-27T11:08:38.261Z,54.79
2023-02-27T11:11:09.440Z,55.88
2023-02-27T11:13:40.587Z,56.17
2023-02-27T11:16:12.471Z,55.96
2023-02-27T11:18:41.928Z,55.99
2023-02-27T11:21:18.157Z,56.25
2023-02-27T11:23:55.734Z,55.51
2023-02-27T11:26:34.250Z,55.63
2023-02-27T11:29:14.887Z,54.12
2023-02-27T11:31:48.708Z,55.77
2023-02-27T11:34:23.872Z,54.59
2023-02-27T11:36:55.674Z,55.53
2023-02-27T11:39:28.262Z,55.02
2023-02-27T11:41:59.270Z,54.61
2023-02-27T11:44:49.608Z,54.11
2023-02-27T11:47:25.081Z,54.84
2023-02-27T11:50:11.587Z,54.55
2023-02-27T11:52:46.846Z,54.09
2023-02-27T11:55:18.194Z,53.95
2023-02-27T11:57:50.858Z,54.37
2023-02-27T12:00:26.334Z,53.98
2023-02-27T12:03:01.836Z,54.33
2023-02-27T12:05:35.779Z,54.21
2023-02-27T12:08:07.528Z,54.88
2023-02-27T12:10:46.998Z,55.42
2023-02-27T12:13:18.972Z,55.01
2023-02-27T12:15:52.938Z,55.14
2023-02-27T12:18:26.830Z,54.53
2023-02-27T12:20:58.874Z,54.94
2023-02-27T12:23:33.806Z,55.21
2023-02-27T12:26:08.267Z,54.33
2023-02-27T12:28:49.204Z,55.18
2023-02-27T12:31:46.006Z,55.03
2023-02-27T12:34:26.005Z,54.46
2023-02-27T12:36:55.108Z,54.23
2023-02-27T12:39:25.137Z,53.85
2023-02-27T12:42:28.205Z,53.23
2023-02-27T12:45:22.653Z,53.88
2023-02-27T12:47:59.384Z,53.73
2023-02-27T12:50:42.916Z,53.59
2023-02-27T12:53:26.812Z,52.28
2023-02-27T12:55:59.103Z,52.85
2023-02-27T12:58:40.008Z,52.90
2023-02-27T13:01:23.405Z,53.08
2023-02-27T13:03:59.957Z,54.18
2023-02-27T13:06:35.909Z,53.35
2023-02-27T13:09:16.182Z,54.12
2023-02-27T13:11:55.537Z,54.08
2023-02-27T13:14:35.977Z,53.11
2023-02-27T13:17:11.877Z,53.96
2023-02-27T13:19:48.297Z,53.96
2023-02-27T13:22:24.741Z,53.38
2023-02-27T13:24:56.403Z,51.96
2023-02-27T13:27:28.663Z,52.82
2023-02-27T13:30:08.818Z,52.26
2023-02-27T13:32:44.348Z,52.08
2023-02-27T13:35:28.199Z,51.94
2023-02-27T13:37:58.463Z,52.81
2023-02-27T13:40:33.429Z,51.75
2023-02-27T13:43:06.436Z,52.60
2023-02-27T13:45:52.393Z,51.15
2023-02-27T13:48:43.894Z,51.53
2023-02-27T13:51:45.829Z,52.76
2023-02-27T13:54:34.108Z,51.12
2023-02-27T13:57:18.598Z,52.06
2023-02-27T13:59:54.817Z,50.90
2023-02-27T14:02:34.019Z,50.86
2023-02-27T14:05:06.343Z,51.31
2023-02-27T14:07:51.564Z,50.19
2023-02-27T14:10:24.054Z,50.86
2023-02-27T14:12:53.112Z,50.54
2023-02-27T14:15:52.556Z,50.84
2023-02-27T14:18:53.792Z,51.85
2023-02-27T14:21:57.874Z,49.14
2023-02-27T14:24:33.765Z,50.76
2023-02-27T14:27:03.154Z,50.27
2023-02-27T14:29:34.088Z,51.25
2023-02-27T14:32:07.115Z,50.67
2023-02-27T14:34:39.380Z,50.50
2023-02-27T14:37:12.040Z,49.46
2023-02-27T14:39:42.025Z,49.92
2023-02-27T14:42:38.254Z,50.03
2023-02-27T14:45:13.900Z,49.76
2023-02-27T14:47:42.407Z,50.28
2023-02-27T14:50:24.443Z,47.43
2023-02-27T14:52:52.462Z,49.18
2023-02-27T14:55:29.756Z,48.61
2023-02-27T14:58:01.604Z,49.15
2023-02-27T15:00:36.287Z,49.31
2023-02-27T15:03:18.444Z,50.27
2023-02-27T15:05:47.250Z,49.37
2023-02-27T15:08:18.835Z,49.51
2023-02-27T15:10:48.782Z,48.98
2023-02-27T15:13:25.477Z,48.73
2023-02-27T15:16:16.713Z,48.98
2023-02-27T15:18:49.675Z,49.12
2023-02-27T15:21:18.940Z,48.59
2023-02-27T15:23:55.254Z,48.05
2023-02-27T15:26:25.914Z,48.24
2023-02-27T15:28:54.260Z,48.53
2023-02-27T15:31:27.033Z,48.09
2023-02-27T15:33:56.551Z,48.02
2023-02-27T15:36:27.745Z,48.85
2023-02-27T15:39:17.540Z,47.33
2023-02-27T15:41:49.277Z,49.13
2023-02-27T15:44:19.042Z,49.73
2023-02-27T15:46:47.799Z,48.92
2023-02-27T15:49:19.146Z,49.80
2023-02-27T15:52:01.434Z,49.08
2023-02-27T15:54:33.759Z,48.57
2023-02-27T15:57:06.154Z,48.56
2023-02-27T15:59:38.057Z,50.03
2023-02-27T16:02:07.232Z,49.60
2023-02-27T16:04:35.824Z,50.43
2023-02-27T16:07:10.674Z,49.00
2023-02-27T16:09:39.201Z,50.03
2023-02-27T16:12:32.647Z,48.92
2023-02-27T16:15:31.184Z,48.36
2023-02-27T16:18:06.709Z,50.31
2023-02-27T16:20:40.524Z,49.68
2023-02-27T16:23:17.716Z,50.86
2023-02-27T16:26:01.775Z,51.32
2023-02-27T16:28:33.322Z,51.80
2023-02-27T16:31:02.577Z,51.40
2023-02-27T16:33:36.676Z,51.11
2023-02-27T16:36:17.950Z,50.58
2023-02-27T16:38:46.515Z,50.56
2023-02-27T16:41:17.011Z,50.59
2023-02-27T16:43:47.421Z,50.88
2023-02-27T16:46:20.386Z,51.06
2023-02-27T16:48:51.741Z,50.43
2023-02-27T16:51:23.814Z,52.14
2023-02-27T16:53:52.488Z,52.16
2023-02-27T16:56:35.729Z,51.46
2023-02-27T16:59:07.339Z,52.33
2023-02-27T17:01:35.560Z,52.67
2023-02-27T17:04:13.449Z,53.35
2023-02-27T17:06:47.810Z,53.61
2023-02-27T17:09:15.983Z,54.08
2023-02-27T17:11:44.015Z,54.06
2023-02-27T17:14:13.583Z,54.19
2023-02-27T17:16:41.854Z,55.23
2023-02-27T17:19:09.820Z,56.14
2023-02-27T17:21:38.001Z,55.68
2023-02-27T17:24:07.190Z,55.98
2023-02-27T17:26:35.674Z,56.27
2023-02-27T17:29:04.194Z,56.38
2023-02-27T17:31:33.681Z,55.98
2023-02-27T17:34:03.618Z,56.40
2023-02-27T17:36:31.907Z,59.75
2023-02-27T17:39:01.927Z,57.89
2023-02-27T17:41:31.541Z,56.49
2023-02-27T17:44:01.785Z,56.87
2023-02-27T17:46:31.944Z,58.56
2023-02-27T17:49:01.894Z,59.11
2023-02-27T17:51:31.431Z,59.25
2023-02-27T17:54:02.807Z,59.06
2023-02-27T17:56:31.199Z,59.22
2023-02-27T17:58:59.303Z,59.15
2023-02-27T18:01:29.061Z,59.89
2023-02-27T18:03:57.320Z,59.37
2023-02-27T18:06:27.018Z,59.14
2023-02-27T18:08:55.753Z,60.08
2023-02-27T18:11:24.372Z,60.20
2023-02-27T18:13:52.587Z,60.61
2023-02-27T18:16:22.353Z,61.12
2023-02-27T18:18:50.979Z,61.36
2023-02-27T18:21:21.179Z,61.15
2023-02-27T18:23:51.454Z,61.27
2023-02-27T18:26:29.848Z,61.01
2023-02-27T18:29:00.365Z,61.50
2023-02-27T18:31:31.095Z,61.59
2023-02-27T18:33:59.434Z,61.87
2023-02-27T18:36:28.234Z,63.07
2023-02-27T18:38:58.322Z,62.08
2023-02-27T18:41:26.540Z,62.41
2023-02-27T18:43:54.713Z,61.80
2023-02-27T18:46:23.571Z,63.64
2023-02-27T18:48:52.084Z,63.72
2023-02-27T18:51:20.506Z,63.13
2023-02-27T18:53:50.488Z,62.47
2023-02-27T18:56:22.928Z,62.40
2023-02-27T18:58:52.021Z,62.06
2023-02-27T19:01:22.353Z,61.95
2023-02-27T19:03:51.183Z,62.16
2023-02-27T19:06:19.252Z,62.36
2023-02-27T19:08:47.703Z,64.52
2023-02-27T19:11:29.556Z,65.21
2023-02-27T19:13:57.992Z,63.97
2023-02-27T19:16:26.419Z,62.83
2023-02-27T19:18:55.980Z,63.75
2023-02-27T19:21:23.961Z,63.69
2023-02-27T19:23:52.305Z,63.26
2023-02-27T19:26:20.619Z,62.81
2023-02-27T19:28:53.978Z,62.70
2023-02-27T19:31:24.023Z,63.03
2023-02-27T19:33:52.194Z,63.83
2023-02-27T19:36:21.846Z,63.89
2023-02-27T19:38:50.198Z,63.98
2023-02-27T19:41:18.688Z,63.47
2023-02-27T19:43:47.582Z,63.87
2023-02-27T19:46:18.529Z,64.16
2023-02-27T19:48:46.873Z,64.57
2023-02-27T19:51:16.566Z,64.03
2023-02-27T19:53:48.377Z,63.98
2023-02-27T19:56:17.981Z,63.91
2023-02-27T19:58:47.789Z,64.02
2023-02-27T20:01:23.562Z,64.44
2023-02-27T20:03:51.811Z,63.96
2023-02-27T20:06:21.845Z,63.95
2023-02-27T20:08:50.029Z,64.16
2023-02-27T20:11:19.801Z,64.02
2023-02-27T20:13:48.276Z,64.30
2023-02-27T20:16:19.296Z,64.17
2023-02-27T20:18:50.022Z,64.67
2023-02-27T20:21:21.473Z,64.81
2023-02-27T20:23:50.751Z,64.40
2023-02-27T20:26:20.606Z,64.63
2023-02-27T20:28:50.890Z,65.35
2023-02-27T20:31:21.263Z,65.16
2023-02-27T20:33:51.138Z,64.35
2023-02-27T20:36:19.189Z,64.96
2023-02-27T20:38:47.192Z,65.38
2023-02-27T20:41:16.720Z,65.17
2023-02-27T20:43:45.276Z,65.57
2023-02-27T20:46:15.847Z,65.28
2023-02-27T20:48:44.341Z,65.76
2023-02-27T20:51:16.005Z,65.25
2023-02-27T20:53:45.560Z,65.67
2023-02-27T20:56:13.691Z,65.68
2023-02-27T20:58:42.240Z,65.26
2023-02-27T21:01:12.174Z,65.17
2023-02-27T21:03:41.698Z,65.35
2023-02-27T21:06:11.850Z,65.54
2023-02-27T21:08:43.219Z,66.13
2023-02-27T21:11:13.865Z,65.97
2023-02-27T21:13:42.275Z,65.72
2023-02-27T21:16:12.352Z,65.56
2023-02-27T21:18:40.322Z,65.82
2023-02-27T21:21:11.168Z,66.12
2023-02-27T21:23:42.201Z,65.97
2023-02-27T21:26:10.860Z,66.57
2023-02-27T21:28:46.804Z,66.40
2023-02-27T21:31:15.669Z,66.28
2023-02-27T21:33:43.807Z,65.98
2023-02-27T21:36:12.658Z,66.13
2023-02-27T21:38:42.213Z,67.07
2023-02-27T21:41:12.864Z,67.26
2023-02-27T21:43:41.276Z,66.70
2023-02-27T21:46:11.311Z,66.43
2023-02-27T21:48:40.295Z,67.04
2023-02-27T21:51:08.348Z,66.21
2023-02-27T21:53:37.287Z,66.62
2023-02-27T21:56:08.821Z,66.58
2023-02-27T21:58:37.118Z,66.39
2023-02-27T22:01:15.327Z,66.42
2023-02-27T22:03:44.529Z,66.77
2023-02-27T22:06:12.585Z,66.81
2023-02-27T22:08:41.048Z,67.20
2023-02-27T22:11:10.796Z,66.94
2023-02-27T22:13:38.998Z,67.11
2023-02-27T22:16:09.039Z,67.31
2023-02-27T22:18:37.533Z,66.95
2023-02-27T22:21:09.143Z,67.45
2023-02-27T22:23:37.920Z,67.48
2023-02-27T22:26:08.073Z,67.80
2023-02-27T22:28:39.081Z,67.41
2023-02-27T22:31:11.547Z,67.42
2023-02-27T22:33:40.666Z,67.90
2023-02-27T22:36:10.423Z,68.61
2023-02-27T22:38:38.808Z,68.43
2023-02-27T22:41:09.304Z,68.11
2023-02-27T22:43:39.784Z,68.56
2023-02-27T22:46:08.242Z,69.08
2023-02-27T22:48:36.888Z,68.52
2023-02-27T22:51:07.554Z,67.87
2023-02-27T22:53:38.398Z,67.59
2023-02-27T22:56:08.279Z,67.92
2023-02-27T22:58:38.963Z,68.15
2023-02-27T23:01:11.417Z,68.57
2023-02-27T23:03:40.135Z,68.86
2023-02-27T23:06:10.584Z,68.87
2023-02-27T23:08:38.659Z,69.87
2023-02-27T23:11:07.044Z,68.77
2023-02-27T23:13:35.024Z,68.79
2023-02-27T23:16:11.258Z,68.79
2023-02-27T23:18:39.724Z,68.65
2023-02-27T23:21:08.421Z,68.07
2023-02-27T23:23:37.183Z,68.33
2023-02-27T23:26:06.277Z,68.45
2023-02-27T23:28:35.421Z,68.69
2023-02-27T23:31:04.981Z,68.83
2023-02-27T23:33:33.250Z,70.09
2023-02-27T23:36:01.796Z,70.22
2023-02-27T23:38:30.168Z,69.74
2023-02-27T23:40:58.167Z,69.92
2023-02-27T23:43:26.266Z,70.15
2023-02-27T23:45:54.306Z,70.60
2023-02-27T23:48:24.014Z,70.28
2023-02-27T23:50:52.005Z,70.02
2023-02-27T23:53:20.719Z,69.35
2023-02-27T23:55:48.685Z,70.06
2023-02-27T23:58:16.668Z,69.76
